createdAt,value
2022-11-24T00:00:39.692Z,3.99
2022-11-24T00:05:41.081Z,4.00
2022-11-24T00:10:42.695Z,4.06
2022-11-24T00:15:44.079Z,4.08
2022-11-24T00:20:52.168Z,4.04
2022-11-24T00:25:53.562Z,3.98
2022-11-24T00:30:55.044Z,3.93
2022-11-24T00:35:58.383Z,3.91
2022-11-24T00:40:59.753Z,3.88
2022-11-24T00:46:01.284Z,3.86
2022-11-24T00:51:06.309Z,3.84
2022-11-24T00:56:08.603Z,3.80
2022-11-24T01:01:18.934Z,3.74
2022-11-24T01:06:25.859Z,3.69
2022-11-24T01:11:29.856Z,3.64
2022-11-24T01:16:34.421Z,3.57
2022-11-24T01:21:35.814Z,3.53
2022-11-24T01:26:38.395Z,3.51
2022-11-24T01:31:40.412Z,3.52
2022-11-24T01:36:41.815Z,3.56
2022-11-24T01:41:43.213Z,3.56
2022-11-24T01:46:48.504Z,3.60
2022-11-24T01:52:13.709Z,3.59
2022-11-24T01:57:21.986Z,3.58
2022-11-24T02:02:25.733Z,3.65
2022-11-24T02:07:28.022Z,3.77
2022-11-24T02:12:29.467Z,3.86
2022-11-24T02:17:30.846Z,3.87
2022-11-24T02:22:44.177Z,3.91
2022-11-24T02:27:50.760Z,3.97
2022-11-24T02:32:55.114Z,4.03
2022-11-24T02:37:56.541Z,4.10
2022-11-24T02:43:04.565Z,4.15
2022-11-24T02:48:06.482Z,4.24
2022-11-24T02:53:07.917Z,4.32
2022-11-24T02:58:09.346Z,4.26
2022-11-24T03:03:11.311Z,4.25
2022-11-24T03:08:12.927Z,4.26
2022-11-24T03:13:14.466Z,4.24
2022-11-24T03:18:15.904Z,4.13
2022-11-24T03:23:17.300Z,4.09
2022-11-24T03:28:18.697Z,4.07
2022-11-24T03:33:20.065Z,4.05
2022-11-24T03:38:21.440Z,4.12
2022-11-24T03:43:22.894Z,4.17
2022-11-24T03:48:24.381Z,4.22
2022-11-24T03:53:27.829Z,4.25
2022-11-24T03:58:29.935Z,4.26
2022-11-24T04:03:31.388Z,4.12
2022-11-24T04:08:33.132Z,3.99
2022-11-24T04:13:34.497Z,3.99
2022-11-24T04:18:35.892Z,4.01
2022-11-24T04:23:37.260Z,4.05
2022-11-24T04:28:38.669Z,4.19
2022-11-24T04:33:40.344Z,4.32
2022-11-24T04:39:23.121Z,4.40
2022-11-24T04:44:03.196Z,4.42
2022-11-24T04:49:05.416Z,4.47
2022-11-24T04:54:08.106Z,4.48
2022-11-24T04:59:14.852Z,4.50
2022-11-24T05:04:16.477Z,4.51
2022-11-24T05:09:18.172Z,4.52
2022-11-24T05:14:19.571Z,4.56
2022-11-24T05:19:21.100Z,4.66
2022-11-24T05:24:22.463Z,4.71
2022-11-24T05:29:23.830Z,4.75
2022-11-24T05:34:25.418Z,4.78
2022-11-24T05:39:26.811Z,4.81
2022-11-24T05:44:28.237Z,4.89
2022-11-24T05:49:29.620Z,4.95
2022-11-24T05:54:31.087Z,5.08
2022-11-24T05:59:32.594Z,5.22
2022-11-24T06:04:34.383Z,5.30
2022-11-24T06:09:40.927Z,5.36
2022-11-24T06:14:42.460Z,5.40
2022-11-24T06:19:47.752Z,5.45
2022-11-24T06:24:50.560Z,5.49
2022-11-24T06:29:52.259Z,5.54
2022-11-24T06:34:53.620Z,5.60
2022-11-24T06:39:54.992Z,5.62
2022-11-24T06:44:56.374Z,5.66
2022-11-24T06:49:57.988Z,5.72
2022-11-24T06:54:59.385Z,5.81
2022-11-24T07:00:00.807Z,5.87
2022-11-24T07:05:02.185Z,5.86
2022-11-24T07:10:03.828Z,5.87
2022-11-24T07:15:05.811Z,5.86
2022-11-24T07:20:08.710Z,5.89
2022-11-24T07:25:10.792Z,5.90
2022-11-24T07:30:12.531Z,5.96
2022-11-24T07:35:13.994Z,6.01
2022-11-24T07:40:15.644Z,6.03
2022-11-24T07:45:17.062Z,6.03
2022-11-24T07:50:18.898Z,6.05
2022-11-24T07:55:20.290Z,6.18
2022-11-24T08:00:21.689Z,6.30
2022-11-24T08:05:23.149Z,6.45
2022-11-24T08:10:24.551Z,6.62
2022-11-24T08:15:26.010Z,6.76
2022-11-24T08:20:27.369Z,6.84
2022-11-24T08:25:32.975Z,6.88
2022-11-24T08:30:34.393Z,6.92
2022-11-24T08:35:37.976Z,6.93
2022-11-24T08:40:39.407Z,6.98
2022-11-24T08:45:41.867Z,7.02
2022-11-24T08:50:43.493Z,7.05
2022-11-24T08:55:44.868Z,7.13
2022-11-24T09:00:46.282Z,7.21
2022-11-24T09:05:52.528Z,7.27
2022-11-24T09:10:59.408Z,7.33
2022-11-24T09:16:12.515Z,7.43
2022-11-24T09:21:18.991Z,7.54
2022-11-24T09:26:27.942Z,7.63
2022-11-24T09:31:31.604Z,7.78
2022-11-24T09:36:33.479Z,7.98
2022-11-24T09:41:39.516Z,8.13
2022-11-24T09:47:24.575Z,8.15
2022-11-24T09:53:01.019Z,8.08
2022-11-24T09:58:23.749Z,8.05
2022-11-24T10:03:43.244Z,8.01
2022-11-24T10:09:12.993Z,7.99
2022-11-24T10:14:26.252Z,8.00
2022-11-24T10:19:48.352Z,8.09
2022-11-24T10:25:21.808Z,8.18
2022-11-24T10:30:26.551Z,8.15
2022-11-24T10:35:37.409Z,8.18
2022-11-24T10:40:59.978Z,8.23
2022-11-24T10:46:16.374Z,8.27
2022-11-24T10:51:30.106Z,8.34
2022-11-24T10:56:42.367Z,8.38
2022-11-24T11:01:43.783Z,8.41
2022-11-24T11:06:45.600Z,8.38
2022-11-24T11:11:48.704Z,8.41
2022-11-24T11:16:59.441Z,8.39
2022-11-24T11:22:03.691Z,8.39
2022-11-24T11:27:26.348Z,8.41
2022-11-24T11:37:51.038Z,8.42
2022-11-24T11:43:21.939Z,8.47
2022-11-24T11:48:32.404Z,8.54
2022-11-24T11:53:49.754Z,8.63
2022-11-24T11:59:06.271Z,8.74
2022-11-24T12:04:41.672Z,8.82
2022-11-24T12:10:08.949Z,8.79
2022-11-24T12:15:41.553Z,8.82
2022-11-24T12:20:55.251Z,8.79
2022-11-24T12:26:22.569Z,8.82
2022-11-24T12:31:45.983Z,8.83
2022-11-24T12:37:02.271Z,8.91
2022-11-24T12:42:13.028Z,8.98
2022-11-24T12:47:23.618Z,9.08
2022-11-24T12:52:35.563Z,9.20
2022-11-24T12:58:00.024Z,9.16
2022-11-24T13:03:10.702Z,9.13
2022-11-24T13:08:14.130Z,9.15
2022-11-24T13:13:15.820Z,9.16
2022-11-24T13:18:55.680Z,9.11
2022-11-24T13:23:58.818Z,9.03
2022-11-24T13:29:13.025Z,8.97
2022-11-24T13:34:38.548Z,8.86
2022-11-24T13:40:03.152Z,8.83
2022-11-24T13:45:25.462Z,8.83
2022-11-24T13:50:56.857Z,8.87
2022-11-24T13:56:00.371Z,8.87
2022-11-24T14:01:06.423Z,8.90
2022-11-24T14:06:34.218Z,8.90
2022-11-24T14:11:35.719Z,8.97
2022-11-24T14:16:37.143Z,8.98
2022-11-24T14:21:41.370Z,8.90
2022-11-24T14:26:46.947Z,8.87
2022-11-24T14:32:03.389Z,8.88
2022-11-24T14:37:04.772Z,8.90
2022-11-24T14:42:21.584Z,8.76
2022-11-24T14:47:37.463Z,8.61
2022-11-24T14:52:46.187Z,8.54
2022-11-24T14:57:47.565Z,8.56
2022-11-24T15:02:54.927Z,8.57
2022-11-24T15:08:03.375Z,8.58
2022-11-24T15:13:19.808Z,8.57
2022-11-24T15:18:31.894Z,8.54
2022-11-24T15:23:34.963Z,8.51
2022-11-24T15:28:36.527Z,8.46
2022-11-24T15:33:38.526Z,8.41
2022-11-24T15:38:39.912Z,8.36
2022-11-24T15:43:41.690Z,8.31
2022-11-24T15:48:43.102Z,8.19
2022-11-24T15:53:46.384Z,8.06
2022-11-24T15:58:48.375Z,7.90
2022-11-24T16:03:50.057Z,7.83
2022-11-24T16:08:52.556Z,7.89
2022-11-24T16:13:54.615Z,7.96
2022-11-24T16:18:56.208Z,8.03
2022-11-24T16:23:57.839Z,8.06
2022-11-24T16:28:59.403Z,8.10
2022-11-24T16:34:00.842Z,8.15
2022-11-24T16:39:02.267Z,8.16
2022-11-24T16:44:04.041Z,8.20
2022-11-24T16:49:05.534Z,8.26
2022-11-24T16:54:07.011Z,8.27
2022-11-24T16:59:08.489Z,8.27
2022-11-24T17:04:12.746Z,8.29
2022-11-24T17:09:15.075Z,8.29
2022-11-24T17:14:16.936Z,8.31
2022-11-24T17:19:18.499Z,8.33
2022-11-24T17:24:20.034Z,8.36
2022-11-24T17:29:21.423Z,8.37
2022-11-24T17:34:22.799Z,8.33
2022-11-24T17:39:25.383Z,8.31
2022-11-24T17:44:26.920Z,8.31
2022-11-24T17:49:28.466Z,8.25
2022-11-24T17:54:45.866Z,8.14
2022-11-24T17:59:48.038Z,8.07
2022-11-24T18:04:50.797Z,8.02
2022-11-24T18:09:56.735Z,8.08
2022-11-24T18:14:58.278Z,8.17
2022-11-24T18:19:59.684Z,8.19
2022-11-24T18:25:01.083Z,8.20
2022-11-24T18:30:03.776Z,8.19
2022-11-24T18:35:05.852Z,8.19
2022-11-24T18:40:08.129Z,8.17
2022-11-24T18:45:10.062Z,8.13
2022-11-24T18:50:11.482Z,8.14
2022-11-24T18:55:12.933Z,8.19
2022-11-24T19:00:14.571Z,8.18
2022-11-24T19:05:15.963Z,8.19
2022-11-24T19:10:17.410Z,8.17
2022-11-24T19:15:18.837Z,8.19
2022-11-24T19:20:20.406Z,8.14
2022-11-24T19:25:21.830Z,8.18
2022-11-24T19:30:23.307Z,8.18
2022-11-24T19:35:24.708Z,8.18
2022-11-24T19:40:26.158Z,8.24
2022-11-24T19:45:28.619Z,8.27
2022-11-24T19:50:30.038Z,8.24
2022-11-24T19:55:32.133Z,8.19
2022-11-24T20:00:33.524Z,8.22
2022-11-24T20:05:34.933Z,8.29
2022-11-24T20:10:36.623Z,8.34
2022-11-24T20:15:38.020Z,8.40
2022-11-24T20:20:42.534Z,8.38
2022-11-24T20:25:43.914Z,8.30
2022-11-24T20:30:45.364Z,8.26
2022-11-24T20:35:46.775Z,8.21
2022-11-24T20:40:48.141Z,8.19
2022-11-24T20:45:49.580Z,8.20
2022-11-24T20:50:51.606Z,8.22
2022-11-24T20:56:05.445Z,8.22
2022-11-24T21:01:10.348Z,8.21
2022-11-24T21:06:13.872Z,8.17
2022-11-24T21:11:15.419Z,8.14
2022-11-24T21:16:23.407Z,8.11
2022-11-24T21:21:27.280Z,8.06
2022-11-24T21:26:28.667Z,8.07
2022-11-24T21:31:30.119Z,8.06
2022-11-24T21:36:33.988Z,8.11
2022-11-24T21:41:35.418Z,8.13
2022-11-24T21:46:42.465Z,8.14
2022-11-24T21:51:47.502Z,8.15
2022-11-24T21:56:48.929Z,8.12
2022-11-24T22:01:50.367Z,8.10
2022-11-24T22:06:55.288Z,8.05
2022-11-24T22:11:56.664Z,8.07
2022-11-24T22:16:58.014Z,8.12
2022-11-24T22:21:59.383Z,8.09
2022-11-24T22:27:02.814Z,7.94
2022-11-24T22:32:04.675Z,7.70
2022-11-24T22:37:06.127Z,7.49
2022-11-24T22:42:07.534Z,7.20
2022-11-24T22:47:09.239Z,6.97
2022-11-24T22:52:10.598Z,6.81
2022-11-24T22:57:11.995Z,6.78
2022-11-24T23:02:13.450Z,6.77
2022-11-24T23:07:14.851Z,6.72
2022-11-24T23:12:18.298Z,6.60
2022-11-24T23:17:19.774Z,6.51
2022-11-24T23:22:21.138Z,6.40
2022-11-24T23:27:22.512Z,6.24
2022-11-24T23:32:23.914Z,6.25
2022-11-24T23:37:39.325Z,6.33
2022-11-24T23:42:47.803Z,6.48
2022-11-24T23:47:49.170Z,6.67
2022-11-24T23:52:50.527Z,6.83
2022-11-24T23:57:51.899Z,7.01
